SXS133 EDDM-LIMC
Flight info
| Callsign | SXS133 |
|---|---|
| Flight time | N/A |
| Altitude | 24000 |
| Route | MERSI5S/26L MERSI Y100 ATMAX Z999 KPT/N0419F230 Z999 BEMKI L607 XEBIX Y740 NATAG DCT LORLO DCT ATPED DCT LUSIL DCT EVRIP |
| Aircraft | B738/M-SDE2E3FGHIRWXY/LB1 |
Departure
| Time | 2026-05-05 20:28 |
|---|---|
| Airport | Munich Airport (EDDM) |
Arrival
| Time | N/A |
|---|---|
| Airport | Milan Malpensa International Airport (LIMC) |
| Time | Latitude | Longitude | Altitude | Speed | Heading |
|---|---|---|---|---|---|
| 2026-05-05 19:56 | 48.35276 | 11.77688 | 1467 ft | 0 kts | 262° |
| 2026-05-05 20:18 | 48.35277 | 11.77707 | 1456 ft | 3 kts | 262° |
| 2026-05-05 20:19 | 48.35280 | 11.77737 | 1460 ft | 3 kts | 262° |
| 2026-05-05 20:19 | 48.35285 | 11.77767 | 1458 ft | 3 kts | 230° |
| 2026-05-05 20:19 | 48.35302 | 11.77784 | 1458 ft | 3 kts | 184° |
| 2026-05-05 20:19 | 48.35308 | 11.77784 | 1460 ft | 0 kts | 177° |
| 2026-05-05 20:22 | 48.35271 | 11.77791 | 1458 ft | 10 kts | 173° |
| 2026-05-05 20:22 | 48.35196 | 11.77804 | 1465 ft | 11 kts | 173° |
| 2026-05-05 20:22 | 48.35123 | 11.77817 | 1465 ft | 11 kts | 173° |
| 2026-05-05 20:22 | 48.35051 | 11.77830 | 1459 ft | 10 kts | 173° |
| 2026-05-05 20:23 | 48.34987 | 11.77841 | 1462 ft | 9 kts | 173° |
| 2026-05-05 20:23 | 48.34906 | 11.77856 | 1465 ft | 12 kts | 173° |
| 2026-05-05 20:23 | 48.34856 | 11.77864 | 1465 ft | 0 kts | 173° |
| 2026-05-05 20:24 | 48.34838 | 11.77868 | 1458 ft | 8 kts | 173° |
| 2026-05-05 20:24 | 48.34755 | 11.77882 | 1465 ft | 15 kts | 173° |
| 2026-05-05 20:24 | 48.34672 | 11.77965 | 1463 ft | 16 kts | 98° |
| 2026-05-05 20:24 | 48.34679 | 11.78133 | 1459 ft | 17 kts | 84° |
| 2026-05-05 20:25 | 48.34692 | 11.78320 | 1467 ft | 20 kts | 83° |
| 2026-05-05 20:25 | 48.34712 | 11.78555 | 1464 ft | 24 kts | 83° |
| 2026-05-05 20:25 | 48.34732 | 11.78817 | 1467 ft | 26 kts | 83° |
| 2026-05-05 20:25 | 48.34751 | 11.79071 | 1467 ft | 24 kts | 84° |
| 2026-05-05 20:26 | 48.34770 | 11.79311 | 1461 ft | 23 kts | 83° |
| 2026-05-05 20:26 | 48.34767 | 11.79518 | 1463 ft | 18 kts | 128° |
| 2026-05-05 20:26 | 48.34655 | 11.79536 | 1465 ft | 17 kts | 204° |
| 2026-05-05 20:26 | 48.34572 | 11.79414 | 1465 ft | 17 kts | 231° |
| 2026-05-05 20:27 | 48.34482 | 11.79241 | 1463 ft | 26 kts | 232° |
| 2026-05-05 20:27 | 48.34372 | 11.78981 | 1459 ft | 33 kts | 251° |
| 2026-05-05 20:27 | 48.34331 | 11.78551 | 1464 ft | 65 kts | 263° |
| 2026-05-05 20:27 | 48.34252 | 11.77501 | 1470 ft | 134 kts | 263° |
| 2026-05-05 20:28 | 48.34110 | 11.75851 | 1675 ft | 172 kts | 263° |
| 2026-05-05 20:28 | 48.33997 | 11.74128 | 2643 ft | 166 kts | 264° |
| 2026-05-05 20:28 | 48.33871 | 11.72299 | 3000 ft | 191 kts | 264° |
| 2026-05-05 20:28 | 48.33714 | 11.70179 | 3230 ft | 216 kts | 263° |
| 2026-05-05 20:29 | 48.33533 | 11.67835 | 3593 ft | 233 kts | 263° |
| 2026-05-05 20:29 | 48.33336 | 11.65362 | 4230 ft | 240 kts | 263° |
| 2026-05-05 20:29 | 48.33157 | 11.62792 | 4690 ft | 259 kts | 263° |
| 2026-05-05 20:29 | 48.32967 | 11.60025 | 5154 ft | 272 kts | 263° |
| 2026-05-05 20:30 | 48.32762 | 11.57165 | 5862 ft | 277 kts | 263° |
| 2026-05-05 20:30 | 48.32549 | 11.54270 | 6640 ft | 280 kts | 263° |
| 2026-05-05 20:30 | 48.32343 | 11.51360 | 7459 ft | 281 kts | 263° |
| 2026-05-05 20:30 | 48.32121 | 11.48432 | 8290 ft | 282 kts | 263° |
| 2026-05-05 20:31 | 48.31900 | 11.45491 | 9135 ft | 285 kts | 262° |
| 2026-05-05 20:31 | 48.31664 | 11.42518 | 9979 ft | 287 kts | 262° |
| 2026-05-05 20:31 | 48.31448 | 11.39509 | 10727 ft | 293 kts | 263° |
| 2026-05-05 20:31 | 48.31233 | 11.36461 | 11560 ft | 295 kts | 262° |
| 2026-05-05 20:32 | 48.31004 | 11.33387 | 12407 ft | 297 kts | 261° |
| 2026-05-05 20:32 | 48.30544 | 11.30399 | 13357 ft | 293 kts | 242° |
| 2026-05-05 20:32 | 48.29263 | 11.28010 | 13988 ft | 301 kts | 217° |
| 2026-05-05 20:32 | 48.27354 | 11.26528 | 14272 ft | 322 kts | 200° |
| 2026-05-05 20:33 | 48.25186 | 11.25316 | 14508 ft | 344 kts | 201° |
| 2026-05-05 20:33 | 48.22889 | 11.23943 | 14704 ft | 365 kts | 202° |
| 2026-05-05 20:33 | 48.20491 | 11.22442 | 15005 ft | 381 kts | 203° |
| 2026-05-05 20:33 | 48.18032 | 11.20859 | 15602 ft | 387 kts | 203° |
| 2026-05-05 20:34 | 48.15550 | 11.19271 | 16315 ft | 390 kts | 203° |
| 2026-05-05 20:34 | 48.13040 | 11.17676 | 16911 ft | 395 kts | 203° |
| 2026-05-05 20:34 | 48.10576 | 11.15761 | 17423 ft | 403 kts | 211° |
| 2026-05-05 20:34 | 48.09002 | 11.14280 | 17885 ft | 403 kts | 212° |
| 2026-05-05 20:35 | 48.06666 | 11.11965 | 18550 ft | 403 kts | 212° |
| 2026-05-05 20:35 | 48.04286 | 11.09715 | 19070 ft | 406 kts | 210° |
| 2026-05-05 20:35 | 48.01845 | 11.07523 | 19521 ft | 411 kts | 210° |
| 2026-05-05 20:35 | 47.99526 | 11.05007 | 19955 ft | 418 kts | 225° |
| 2026-05-05 20:36 | 47.97862 | 11.01432 | 20492 ft | 423 kts | 240° |
| 2026-05-05 20:36 | 47.96823 | 10.97304 | 21000 ft | 428 kts | 253° |
| 2026-05-05 20:36 | 47.96096 | 10.92974 | 21452 ft | 432 kts | 254° |
| 2026-05-05 20:36 | 47.95388 | 10.88594 | 21874 ft | 436 kts | 254° |
| 2026-05-05 20:37 | 47.94641 | 10.84186 | 22310 ft | 439 kts | 253° |
| 2026-05-05 20:37 | 47.93863 | 10.79775 | 22758 ft | 441 kts | 253° |
| 2026-05-05 20:37 | 47.92884 | 10.75437 | 23260 ft | 441 kts | 245° |
| 2026-05-05 20:37 | 47.91474 | 10.71400 | 23722 ft | 439 kts | 236° |
| 2026-05-05 20:38 | 47.89744 | 10.67634 | 23842 ft | 444 kts | 233° |
| 2026-05-05 20:38 | 47.87954 | 10.63839 | 23861 ft | 452 kts | 233° |
| 2026-05-05 20:38 | 47.86137 | 10.59974 | 23879 ft | 458 kts | 233° |
| 2026-05-05 20:38 | 47.84311 | 10.56051 | 23870 ft | 463 kts | 233° |
| 2026-05-05 20:39 | 47.82482 | 10.52088 | 23855 ft | 464 kts | 234° |
| 2026-05-05 20:39 | 47.80662 | 10.48128 | 23847 ft | 464 kts | 234° |
| 2026-05-05 20:39 | 47.78835 | 10.44160 | 23848 ft | 464 kts | 234° |
| 2026-05-05 20:39 | 47.76971 | 10.40237 | 23845 ft | 464 kts | 229° |
| 2026-05-05 20:40 | 47.74635 | 10.36971 | 23854 ft | 462 kts | 213° |
| 2026-05-05 20:40 | 47.71828 | 10.34694 | 23853 ft | 461 kts | 202° |
| 2026-05-05 20:40 | 47.68747 | 10.33390 | 23839 ft | 445 kts | 189° |
| 2026-05-05 20:40 | 47.65725 | 10.32807 | 23863 ft | 444 kts | 187° |
| 2026-05-05 20:41 | 47.62602 | 10.32170 | 23852 ft | 451 kts | 188° |
| 2026-05-05 20:41 | 47.59474 | 10.31582 | 23852 ft | 456 kts | 183° |
| 2026-05-05 20:41 | 47.56349 | 10.32002 | 23850 ft | 460 kts | 167° |
| 2026-05-05 20:41 | 47.53290 | 10.33600 | 23848 ft | 465 kts | 155° |
| 2026-05-05 20:42 | 47.50607 | 10.36145 | 23871 ft | 453 kts | 144° |
| 2026-05-05 20:42 | 47.48153 | 10.39014 | 23853 ft | 447 kts | 144° |
| 2026-05-05 20:42 | 47.45695 | 10.41788 | 23851 ft | 445 kts | 144° |
| 2026-05-05 20:42 | 47.43179 | 10.44492 | 23858 ft | 450 kts | 149° |
| 2026-05-05 20:43 | 47.40404 | 10.46661 | 23870 ft | 454 kts | 159° |
| 2026-05-05 20:43 | 47.37400 | 10.48164 | 23870 ft | 458 kts | 167° |
| 2026-05-05 20:43 | 47.34323 | 10.48990 | 23842 ft | 450 kts | 175° |
| 2026-05-05 20:43 | 47.31247 | 10.49394 | 23884 ft | 444 kts | 176° |
| 2026-05-05 20:44 | 47.28152 | 10.49773 | 23879 ft | 446 kts | 176° |
| 2026-05-05 20:44 | 47.25019 | 10.50162 | 23854 ft | 447 kts | 176° |
| 2026-05-05 20:44 | 47.21968 | 10.50575 | 23883 ft | 446 kts | 175° |
| 2026-05-05 20:44 | 47.18877 | 10.51012 | 23883 ft | 447 kts | 175° |
| 2026-05-05 20:45 | 47.12673 | 10.51906 | 23891 ft | 449 kts | 175° |
| 2026-05-05 20:45 | 47.09566 | 10.52350 | 23889 ft | 448 kts | 175° |
| 2026-05-05 20:45 | 47.06466 | 10.52820 | 23895 ft | 448 kts | 173° |
| 2026-05-05 20:46 | 47.03414 | 10.53771 | 23898 ft | 450 kts | 164° |
| 2026-05-05 20:46 | 47.00439 | 10.55175 | 23926 ft | 450 kts | 163° |
| 2026-05-05 20:46 | 46.97462 | 10.56588 | 23928 ft | 450 kts | 163° |
| 2026-05-05 20:46 | 46.94470 | 10.57979 | 23928 ft | 451 kts | 164° |
| 2026-05-05 20:47 | 46.91479 | 10.59342 | 23907 ft | 451 kts | 164° |
| 2026-05-05 20:47 | 46.88488 | 10.60692 | 23944 ft | 448 kts | 164° |
| 2026-05-05 20:47 | 46.85521 | 10.62027 | 23936 ft | 443 kts | 165° |
| 2026-05-05 20:47 | 46.82582 | 10.63345 | 23936 ft | 442 kts | 165° |
| 2026-05-05 20:48 | 46.79640 | 10.64662 | 23959 ft | 443 kts | 165° |
| 2026-05-05 20:48 | 46.76691 | 10.65958 | 23964 ft | 443 kts | 167° |
| 2026-05-05 20:48 | 46.73663 | 10.66687 | 23978 ft | 441 kts | 178° |
| 2026-05-05 20:48 | 46.70592 | 10.66624 | 23978 ft | 441 kts | 185° |
| 2026-05-05 20:49 | 46.67563 | 10.65908 | 23977 ft | 441 kts | 195° |
| 2026-05-05 20:49 | 46.64633 | 10.64604 | 23992 ft | 441 kts | 197° |
| 2026-05-05 20:49 | 46.61703 | 10.63263 | 24000 ft | 442 kts | 197° |
| 2026-05-05 20:49 | 46.58763 | 10.61932 | 24002 ft | 442 kts | 197° |
| 2026-05-05 20:50 | 46.55826 | 10.60617 | 24012 ft | 442 kts | 197° |
| 2026-05-05 20:50 | 46.52883 | 10.59315 | 24025 ft | 442 kts | 197° |
| 2026-05-05 20:50 | 46.49937 | 10.58021 | 24014 ft | 443 kts | 197° |
| 2026-05-05 20:50 | 46.46991 | 10.56734 | 24015 ft | 442 kts | 197° |
| 2026-05-05 20:51 | 46.44050 | 10.55458 | 24016 ft | 440 kts | 197° |
| 2026-05-05 20:51 | 46.41132 | 10.54183 | 24016 ft | 437 kts | 197° |
| 2026-05-05 20:51 | 46.38228 | 10.52911 | 24023 ft | 435 kts | 197° |
| 2026-05-05 20:51 | 46.35329 | 10.51645 | 24010 ft | 436 kts | 197° |
| 2026-05-05 20:52 | 46.32426 | 10.50381 | 24033 ft | 436 kts | 197° |
| 2026-05-05 20:52 | 46.29515 | 10.49116 | 24021 ft | 437 kts | 197° |
| 2026-05-05 20:52 | 46.26600 | 10.47851 | 24030 ft | 438 kts | 197° |
| 2026-05-05 20:52 | 46.23675 | 10.46582 | 24022 ft | 439 kts | 197° |
| 2026-05-05 20:53 | 46.20755 | 10.45317 | 24026 ft | 438 kts | 197° |
| 2026-05-05 20:53 | 46.17933 | 10.43681 | 24020 ft | 439 kts | 209° |
| 2026-05-05 20:53 | 46.15495 | 10.41027 | 24036 ft | 440 kts | 221° |
| 2026-05-05 20:53 | 46.13478 | 10.37687 | 24027 ft | 445 kts | 233° |
| 2026-05-05 20:54 | 46.11976 | 10.33781 | 24025 ft | 445 kts | 240° |
| 2026-05-05 20:54 | 46.10629 | 10.29792 | 24015 ft | 442 kts | 241° |
| 2026-05-05 20:54 | 46.09286 | 10.25826 | 24007 ft | 439 kts | 240° |
| 2026-05-05 20:54 | 46.07927 | 10.21900 | 24011 ft | 437 kts | 240° |
| 2026-05-05 20:55 | 46.06547 | 10.17995 | 23987 ft | 436 kts | 240° |
| 2026-05-05 20:55 | 46.05164 | 10.14114 | 24003 ft | 435 kts | 239° |
| 2026-05-05 20:55 | 46.03785 | 10.10237 | 23975 ft | 436 kts | 240° |
| 2026-05-05 20:55 | 46.02449 | 10.06327 | 23994 ft | 436 kts | 241° |
| 2026-05-05 20:56 | 46.01137 | 10.02399 | 23974 ft | 432 kts | 241° |
| 2026-05-05 20:56 | 45.99862 | 9.98553 | 23447 ft | 424 kts | 241° |
| 2026-05-05 20:56 | 45.98601 | 9.94752 | 22738 ft | 414 kts | 241° |
| 2026-05-05 20:56 | 45.97377 | 9.91089 | 22171 ft | 399 kts | 241° |
| 2026-05-05 20:57 | 45.96211 | 9.87614 | 21997 ft | 373 kts | 241° |
| 2026-05-05 20:57 | 45.95102 | 9.84322 | 22428 ft | 358 kts | 240° |
| 2026-05-05 20:57 | 45.94059 | 9.81235 | 22903 ft | 330 kts | 240° |
| 2026-05-05 20:57 | 45.93082 | 9.78346 | 22957 ft | 315 kts | 240° |
| 2026-05-05 20:58 | 45.92150 | 9.75599 | 22978 ft | 297 kts | 240° |
| 2026-05-05 20:58 | 45.91269 | 9.73002 | 22974 ft | 282 kts | 239° |
| 2026-05-05 20:58 | 45.90424 | 9.70514 | 22981 ft | 272 kts | 239° |
| 2026-05-05 20:58 | 45.89602 | 9.68099 | 22982 ft | 267 kts | 239° |
| 2026-05-05 20:59 | 45.88779 | 9.65693 | 22986 ft | 271 kts | 239° |
| 2026-05-05 20:59 | 45.87941 | 9.63242 | 23010 ft | 275 kts | 239° |
| 2026-05-05 20:59 | 45.87100 | 9.60780 | 22990 ft | 274 kts | 239° |
| 2026-05-05 20:59 | 45.86264 | 9.58329 | 22996 ft | 273 kts | 239° |
| 2026-05-05 21:00 | 45.85437 | 9.55904 | 23000 ft | 266 kts | 239° |
| 2026-05-05 21:00 | 45.84431 | 9.53777 | 22988 ft | 251 kts | 220° |
| 2026-05-05 21:00 | 45.83107 | 9.52227 | 22979 ft | 242 kts | 212° |
| 2026-05-05 21:00 | 45.81642 | 9.51176 | 22995 ft | 232 kts | 200° |
| 2026-05-05 21:01 | 45.80127 | 9.50477 | 22993 ft | 227 kts | 197° |
| 2026-05-05 21:01 | 45.78595 | 9.49830 | 23025 ft | 235 kts | 195° |
| 2026-05-05 21:01 | 45.76869 | 9.49669 | 23013 ft | 265 kts | 176° |
| 2026-05-05 21:01 | 45.74988 | 9.50320 | 23003 ft | 292 kts | 163° |
| 2026-05-05 21:02 | 45.73114 | 9.51731 | 22995 ft | 320 kts | 146° |
| 2026-05-05 21:02 | 45.71555 | 9.54162 | 23010 ft | 340 kts | 133° |
| 2026-05-05 21:02 | 45.70170 | 9.56849 | 22986 ft | 330 kts | 131° |
| 2026-05-05 21:02 | 45.68847 | 9.59468 | 22972 ft | 318 kts | 132° |
| 2026-05-05 21:03 | 45.67739 | 9.62159 | 22964 ft | 316 kts | 114° |
| 2026-05-05 21:03 | 45.67425 | 9.65248 | 22986 ft | 317 kts | 91° |
| 2026-05-05 21:03 | 45.67922 | 9.68311 | 22987 ft | 317 kts | 69° |
| 2026-05-05 21:03 | 45.69163 | 9.70902 | 22986 ft | 319 kts | 45° |
| 2026-05-05 21:04 | 45.71027 | 9.72679 | 23010 ft | 330 kts | 20° |
| 2026-05-05 21:04 | 45.73259 | 9.73310 | 22976 ft | 326 kts | 354° |
| 2026-05-05 21:04 | 45.75440 | 9.72627 | 22798 ft | 319 kts | 328° |
| 2026-05-05 21:04 | 45.77247 | 9.70875 | 22622 ft | 312 kts | 307° |
| 2026-05-05 21:05 | 45.78612 | 9.68505 | 22570 ft | 306 kts | 300° |
| 2026-05-05 21:05 | 45.79851 | 9.66089 | 22284 ft | 299 kts | 299° |
| 2026-05-05 21:05 | 45.81075 | 9.63673 | 21815 ft | 300 kts | 300° |
| 2026-05-05 21:05 | 45.82310 | 9.61263 | 21419 ft | 299 kts | 300° |
| 2026-05-05 21:06 | 45.83546 | 9.58878 | 21069 ft | 297 kts | 300° |
| 2026-05-05 21:06 | 45.84776 | 9.56513 | 20664 ft | 294 kts | 300° |
| 2026-05-05 21:06 | 45.85890 | 9.54091 | 20227 ft | 286 kts | 285° |
| 2026-05-05 21:06 | 45.86276 | 9.51394 | 19885 ft | 271 kts | 264° |
| 2026-05-05 21:07 | 45.85996 | 9.48779 | 19575 ft | 261 kts | 247° |
| 2026-05-05 21:07 | 45.85176 | 9.46489 | 19180 ft | 258 kts | 230° |
| 2026-05-05 21:07 | 45.83911 | 9.44723 | 19071 ft | 253 kts | 213° |
| 2026-05-05 21:07 | 45.82328 | 9.43635 | 19016 ft | 256 kts | 196° |
| 2026-05-05 21:08 | 45.80540 | 9.43341 | 19006 ft | 264 kts | 179° |
| 2026-05-05 21:08 | 45.78730 | 9.43932 | 19006 ft | 271 kts | 162° |
| 2026-05-05 21:08 | 45.77082 | 9.45299 | 18982 ft | 279 kts | 143° |
| 2026-05-05 21:08 | 45.75818 | 9.47418 | 18994 ft | 280 kts | 134° |
| 2026-05-05 21:09 | 45.74646 | 9.49654 | 18994 ft | 280 kts | 133° |
| 2026-05-05 21:09 | 45.73483 | 9.51898 | 18994 ft | 281 kts | 133° |
| 2026-05-05 21:09 | 45.72318 | 9.54145 | 18997 ft | 282 kts | 133° |
| 2026-05-05 21:09 | 45.71148 | 9.56394 | 18989 ft | 282 kts | 133° |
| 2026-05-05 21:10 | 45.69972 | 9.58649 | 18994 ft | 283 kts | 133° |
| 2026-05-05 21:10 | 45.68814 | 9.60927 | 18998 ft | 286 kts | 126° |
| 2026-05-05 21:10 | 45.68158 | 9.63664 | 18997 ft | 298 kts | 101° |
| 2026-05-05 21:10 | 45.68263 | 9.66653 | 18994 ft | 307 kts | 79° |
| 2026-05-05 21:11 | 45.69122 | 9.69474 | 18994 ft | 314 kts | 56° |
| 2026-05-05 21:11 | 45.70686 | 9.71645 | 18996 ft | 316 kts | 30° |
| 2026-05-05 21:11 | 45.72722 | 9.72733 | 18988 ft | 312 kts | 4° |
| 2026-05-05 21:11 | 45.74818 | 9.72568 | 19002 ft | 303 kts | 339° |
| 2026-05-05 21:12 | 45.76696 | 9.71318 | 18999 ft | 295 kts | 319° |
| 2026-05-05 21:12 | 45.78148 | 9.69325 | 18999 ft | 286 kts | 302° |
| 2026-05-05 21:12 | 45.79343 | 9.67054 | 18996 ft | 285 kts | 300° |
| 2026-05-05 21:12 | 45.80514 | 9.64755 | 18998 ft | 286 kts | 300° |
| 2026-05-05 21:13 | 45.81694 | 9.62453 | 18995 ft | 288 kts | 300° |
| 2026-05-05 21:13 | 45.82891 | 9.60139 | 19001 ft | 289 kts | 301° |
| 2026-05-05 21:13 | 45.83703 | 9.58573 | 18991 ft | 290 kts | 301° |
| 2026-05-05 21:13 | 45.84905 | 9.56260 | 18983 ft | 287 kts | 301° |
| 2026-05-05 21:14 | 45.85952 | 9.53880 | 19006 ft | 277 kts | 284° |